Time;durP1;ratioP1;P1;durP2;ratioP2;P2;SDS_P1;SDS_P2;PMS_P1;PMS_P2;Temp;Humidity;BMP_temperature;BMP_pressure;BME280_temperature;BME280_humidity;BME280_pressure;Samples;Min_cycle;Max_cycle;Signal;HPM_P1;HPM_P2
2022/11/25 00:03:02;;;;;;;12.67;9.37;;;;;;;6.83;52.00;99567.56;10401505;28;20237;-64
2022/11/25 00:08:04;;;;;;;14.80;9.10;;;;;;;8.56;48.43;99633.81;10399240;28;20239;-64
2022/11/25 00:13:06;;;;;;;14.57;8.17;;;;;;;7.94;49.13;99635.38;10408143;28;20224;-64
2022/11/25 00:18:07;;;;;;;16.70;8.53;;;;;;;8.96;48.35;99616.75;10408861;28;20237;-64
2022/11/25 00:23:10;;;;;;;12.07;8.00;;;;;;;8.84;48.30;99631.44;10407791;28;20236;-66
2022/11/25 00:28:12;;;;;;;8.93;6.13;;;;;;;8.43;49.35;99634.34;10404529;28;20463;-63
2022/11/25 00:33:14;;;;;;;10.60;6.73;;;;;;;8.86;48.67;99616.13;10408933;28;20227;-64
2022/11/25 00:38:15;;;;;;;11.20;6.20;;;;;;;8.96;49.22;99615.91;10407145;28;20319;-64
2022/11/25 00:48:38;;;;;;;7.70;5.20;;;;;;;9.74;47.57;99579.97;10416050;28;20466;-63
2022/11/25 00:53:40;;;;;;;8.60;5.77;;;;;;;8.82;48.71;99641.47;10411206;28;20228;-66
2022/11/25 00:58:43;;;;;;;8.37;4.67;;;;;;;9.47;47.72;99631.38;10406963;28;20240;-63
2022/11/25 01:03:48;;;;;;;9.50;5.77;;;;;;;8.60;48.90;99649.25;10405986;28;20239;-64
2022/11/25 01:08:50;;;;;;;9.53;5.90;;;;;;;7.72;50.98;99621.72;10406169;28;20787;-64
2022/11/25 01:13:53;;;;;;;10.20;5.93;;;;;;;8.43;49.14;99653.84;10407356;28;20297;-64
2022/11/25 01:19:03;;;;;;;8.23;5.90;;;;;;;7.52;51.33;99612.44;10405902;28;20279;-64
2022/11/25 01:24:06;;;;;;;9.90;6.50;;;;;;;7.84;51.33;99626.72;10406446;28;20282;-64
2022/11/25 01:29:14;;;;;;;9.27;5.60;;;;;;;9.85;47.59;99594.75;10406484;28;20601;-64
2022/11/25 01:34:18;;;;;;;8.27;5.37;;;;;;;8.64;48.61;99682.59;10407616;28;20712;-64
2022/11/25 01:39:22;;;;;;;8.43;5.40;;;;;;;9.09;49.01;99672.19;10402239;28;20240;-64
2022/11/25 01:44:32;;;;;;;7.87;5.20;;;;;;;9.99;47.16;99630.53;10405109;28;20287;-64
2022/11/25 01:49:39;;;;;;;8.73;5.80;;;;;;;9.38;47.94;99671.50;10403220;28;20262;-66
2022/11/25 01:54:55;;;;;;;9.60;5.50;;;;;;;8.16;50.46;99657.78;10404007;28;20237;-64
2022/11/25 02:00:00;;;;;;;9.07;5.90;;;;;;;9.03;48.51;99662.25;10399452;28;20236;-63
2022/11/25 02:05:07;;;;;;;9.77;7.60;;;;;;;7.77;49.68;99634.53;10404484;28;20717;-63
2022/11/25 02:10:13;;;;;;;14.40;7.67;;;;;;;7.96;49.71;99640.53;10404076;28;20236;-64
2022/11/25 02:15:15;;;;;;;9.23;6.73;;;;;;;6.59;52.76;99553.19;10403881;28;20259;-66
2022/11/25 02:20:20;;;;;;;13.20;5.97;;;;;;;7.81;50.84;99601.22;10404011;28;20258;-63
2022/11/25 02:25:23;;;;;;;10.13;6.30;;;;;;;8.95;49.31;99598.25;10403619;28;20656;-63
2022/11/25 02:30:25;;;;;;;11.70;5.63;;;;;;;8.58;49.08;99626.47;10399350;28;20236;-63
2022/11/25 02:35:35;;;;;;;11.27;5.90;;;;;;;7.86;50.07;99622.06;10403272;28;20236;-64
2022/11/25 02:41:21;;;;;;;8.17;6.10;;;;;;;7.86;50.89;99616.75;10403740;28;20278;-66
2022/11/25 02:46:25;;;;;;;9.47;5.63;;;;;;;8.14;50.30;99603.00;10327274;28;20236;-64
2022/11/25 02:51:29;;;;;;;9.23;6.83;;;;;;;9.08;48.52;99605.63;10392410;28;20261;-66
2022/11/25 02:56:34;;;;;;;8.37;5.77;;;;;;;9.29;48.36;99616.47;10367085;28;20264;-63
2022/11/25 03:01:37;;;;;;;9.83;6.00;;;;;;;9.31;47.58;99613.63;10359717;28;20229;-66
2022/11/25 03:06:39;;;;;;;7.70;5.50;;;;;;;8.66;49.40;99642.41;10361846;28;20318;-65
2022/11/25 03:17:00;;;;;;;8.77;6.20;;;;;;;8.06;50.42;99641.16;10356582;28;20237;-63
2022/11/25 03:22:03;;;;;;;8.80;6.37;;;;;;;8.18;49.98;99633.63;10362451;28;20259;-66
2022/11/25 03:27:04;;;;;;;8.37;5.70;;;;;;;8.31;49.64;99631.25;10359974;28;20291;-65
2022/11/25 03:32:06;;;;;;;9.93;6.07;;;;;;;9.11;48.68;99611.47;10360041;28;20844;-65
2022/11/25 03:37:10;;;;;;;6.43;5.10;;;;;;;10.60;45.87;99557.22;10363433;28;20291;-65
2022/11/25 03:42:12;;;;;;;6.97;5.20;;;;;;;8.96;47.82;99635.44;10359684;28;20295;-63
2022/11/25 03:47:13;;;;;;;8.80;5.67;;;;;;;8.77;48.92;99635.84;10366411;28;20231;-63
2022/11/25 03:52:15;;;;;;;6.93;5.97;;;;;;;9.71;47.45;99598.22;10384466;28;20240;-66
2022/11/25 03:57:17;;;;;;;11.17;6.90;;;;;;;8.14;49.36;99611.00;10415192;28;20293;-64
2022/11/25 04:02:18;;;;;;;8.67;6.00;;;;;;;9.67;47.42;99581.75;10410517;28;20634;-66
2022/11/25 04:07:20;;;;;;;11.77;6.40;;;;;;;8.70;49.45;99626.88;10409153;28;20290;-64
2022/11/25 04:17:42;;;;;;;8.53;6.20;;;;;;;8.41;49.72;99621.19;10408399;28;20243;-66
2022/11/25 04:22:44;;;;;;;9.00;6.53;;;;;;;8.94;49.02;99620.59;10407813;28;20279;-64
2022/11/25 04:27:45;;;;;;;8.27;5.70;;;;;;;8.94;49.17;99617.91;10408536;28;20248;-66
2022/11/25 04:32:47;;;;;;;10.13;5.73;;;;;;;10.07;47.13;99562.75;10407592;28;20625;-65
2022/11/25 04:37:49;;;;;;;11.63;5.90;;;;;;;9.04;48.70;99607.81;10408206;28;20261;-65
2022/11/25 04:42:50;;;;;;;13.10;7.47;;;;;;;7.76;49.62;99579.59;10408457;28;20732;-66
2022/11/25 04:48:00;;;;;;;12.20;8.03;;;;;;;9.08;48.01;99592.28;10404844;28;20244;-64
2022/11/25 04:53:02;;;;;;;19.87;11.30;;;;;;;8.88;48.15;99621.31;10405704;28;20717;-64
2022/11/25 04:58:03;;;;;;;10.60;7.87;;;;;;;5.38;53.86;99465.78;10415145;28;20815;-65
2022/11/25 05:03:05;;;;;;;11.87;7.50;;;;;;;7.04;52.49;99555.59;10407683;28;20242;-65
2022/11/25 05:08:07;;;;;;;10.03;5.80;;;;;;;6.17;53.54;99538.16;10408426;28;20232;-65
2022/11/25 05:13:09;;;;;;;8.20;5.73;;;;;;;8.61;49.48;99572.75;10407499;28;20235;-65
2022/11/25 05:18:10;;;;;;;10.57;6.30;;;;;;;6.89;52.36;99574.06;10407083;28;20236;-65
2022/11/25 05:23:12;;;;;;;12.57;6.00;;;;;;;7.67;51.82;99569.97;10405439;28;21576;-65
2022/11/25 05:28:14;;;;;;;11.10;6.40;;;;;;;7.65;50.56;99585.31;10406795;28;20266;-67
2022/11/25 05:33:15;;;;;;;9.10;5.77;;;;;;;6.88;50.69;99594.50;10404235;28;20242;-65
2022/11/25 05:38:17;;;;;;;10.93;7.07;;;;;;;8.93;47.39;99578.91;10402058;28;20755;-65
2022/11/25 05:43:19;;;;;;;10.07;6.83;;;;;;;8.58;47.97;99616.59;10401527;28;20225;-65
2022/11/25 05:48:21;;;;;;;12.23;6.00;;;;;;;8.50;47.84;99645.16;10404323;28;20258;-65
2022/11/25 05:53:22;;;;;;;10.00;5.60;;;;;;;9.21;47.18;99641.41;10403146;28;20286;-65
2022/11/25 05:58:24;;;;;;;10.50;6.23;;;;;;;9.25;46.97;99638.38;10403463;28;20232;-65
2022/11/25 06:03:27;;;;;;;10.70;5.97;;;;;;;8.74;48.52;99670.88;10401874;28;20229;-65
2022/11/25 06:08:30;;;;;;;9.70;6.40;;;;;;;9.61;46.91;99648.44;10399434;28;20283;-65
2022/11/25 06:13:32;;;;;;;9.97;7.10;;;;;;;8.24;48.61;99705.75;10401494;28;20240;-67
2022/11/25 06:18:35;;;;;;;16.67;8.20;;;;;;;7.52;50.50;99684.34;10397120;28;20249;-65
2022/11/25 06:23:38;;;;;;;11.40;7.70;;;;;;;8.09;50.96;99652.31;10394083;28;20595;-66
2022/11/25 06:28:39;;;;;;;15.13;8.27;;;;;;;7.33;50.80;99696.16;10402916;28;20240;-64
2022/11/25 06:33:41;;;;;;;11.67;6.80;;;;;;;6.65;52.63;99659.91;10400054;28;20259;-65
2022/11/25 06:38:48;;;;;;;13.37;8.73;;;;;;;8.66;49.24;99687.78;10398191;28;20237;-64
2022/11/25 06:43:50;;;;;;;10.57;6.20;;;;;;;7.16;52.57;99680.16;10397136;28;20221;-65
2022/11/25 06:48:52;;;;;;;8.47;5.73;;;;;;;7.36;52.44;99670.03;10397343;28;20246;-65
2022/11/25 06:53:54;;;;;;;10.63;6.67;;;;;;;6.77;52.98;99656.81;10401679;28;20237;-65
2022/11/25 06:58:55;;;;;;;9.80;7.13;;;;;;;8.81;49.56;99647.84;10407680;28;20285;-65
2022/11/25 07:04:02;;;;;;;11.83;6.83;;;;;;;7.75;51.10;99676.50;10407105;28;20227;-65
2022/11/25 07:09:04;;;;;;;8.23;6.47;;;;;;;6.30;53.96;99627.25;10402051;28;20327;-64
2022/11/25 07:14:10;;;;;;;9.43;5.43;;;;;;;5.46;56.40;99579.94;10399609;28;20648;-64
2022/11/25 07:19:14;;;;;;;7.40;5.37;;;;;;;5.47;56.97;99592.25;10403123;28;20720;-64
2022/11/25 07:24:17;;;;;;;11.50;7.50;;;;;;;6.78;53.81;99647.84;10410784;28;20232;-63
2022/11/25 07:29:19;;;;;;;9.67;6.27;;;;;;;7.94;52.57;99640.69;10411476;28;20229;-64
2022/11/25 07:34:41;;;;;;;9.77;5.70;;;;;;;9.89;48.44;99633.47;10410601;28;20278;-66
2022/11/25 07:39:42;;;;;;;11.30;7.13;;;;;;;9.34;49.40;99718.25;10412035;28;20329;-65
2022/11/25 07:44:44;;;;;;;8.80;7.40;;;;;;;10.07;47.80;99705.31;10410554;28;20232;-68
2022/11/25 07:49:46;;;;;;;14.07;7.50;;;;;;;8.11;52.13;99729.44;10411048;28;20228;-68
2022/11/25 07:54:47;;;;;;;8.03;6.63;;;;;;;7.22;54.24;99701.78;10406808;28;20293;-65
2022/11/25 07:59:49;;;;;;;13.90;5.37;;;;;;;6.62;55.70;99683.16;10405635;28;20894;-65
2022/11/25 08:04:50;;;;;;;8.67;5.63;;;;;;;7.20;54.97;99696.63;10408861;28;20287;-65
2022/11/25 08:09:52;;;;;;;8.70;4.80;;;;;;;7.40;54.27;99704.31;10408230;28;20239;-65
2022/11/25 08:14:55;;;;;;;7.83;4.77;;;;;;;5.85;58.22;99637.13;10403763;28;20228;-65
2022/11/25 08:19:56;;;;;;;8.43;4.80;;;;;;;6.88;56.05;99695.56;10402547;28;20230;-66
2022/11/25 08:24:58;;;;;;;10.40;6.03;;;;;;;8.76;52.00;99696.38;10408531;28;20239;-66
2022/11/25 08:30:00;;;;;;;9.73;6.90;;;;;;;9.09;51.11;99716.75;10407585;28;20243;-66
2022/11/25 08:35:01;;;;;;;10.83;6.33;;;;;;;8.95;51.71;99737.84;10405603;28;20228;-66
2022/11/25 08:40:04;;;;;;;9.83;6.63;;;;;;;8.67;52.00;99764.09;10407304;28;20235;-66
2022/11/25 08:45:07;;;;;;;10.53;6.63;;;;;;;8.81;51.76;99773.25;10407025;28;20239;-65
2022/11/25 08:50:09;;;;;;;13.03;7.53;;;;;;;8.85;51.73;99770.03;10408511;28;20285;-65
2022/11/25 08:55:11;;;;;;;11.50;7.33;;;;;;;9.51;50.92;99718.13;10409051;28;20286;-65
2022/11/25 09:00:13;;;;;;;14.10;8.73;;;;;;;9.59;51.09;99734.91;10409686;28;20224;-66
2022/11/25 09:05:16;;;;;;;7.37;5.93;;;;;;;6.60;56.69;99693.13;10413500;28;20240;-65
2022/11/25 09:10:18;;;;;;;12.00;6.30;;;;;;;6.69;57.46;99725.91;10411311;28;20229;-65
2022/11/25 09:15:20;;;;;;;12.13;7.20;;;;;;;8.49;54.77;99721.69;10407043;28;20244;-66
2022/11/25 09:20:22;;;;;;;11.20;7.03;;;;;;;7.70;55.79;99785.38;10405923;28;20712;-65
2022/11/25 09:25:23;;;;;;;8.07;5.90;;;;;;;8.24;56.71;99716.41;10407176;28;20232;-68
2022/11/25 09:30:25;;;;;;;9.23;6.60;;;;;;;7.41;56.71;99794.69;10405901;28;20236;-65
2022/11/25 09:35:27;;;;;;;10.43;7.53;;;;;;;9.21;53.92;99716.19;10405559;28;20787;-65
2022/11/25 09:40:57;;;;;;;12.40;8.37;;;;;;;8.72;54.61;99743.06;10406599;28;20215;-66
2022/11/25 09:46:40;;;;;;;9.57;6.93;;;;;;;9.44;53.10;99706.50;10396065;28;20232;-65
2022/11/25 09:52:01;;;;;;;15.13;7.37;;;;;;;9.74;52.75;99721.59;10392123;28;20248;-66
2022/11/25 09:57:28;;;;;;;11.47;8.27;;;;;;;9.53;52.29;99783.72;10394564;28;21116;-66
2022/11/25 10:03:07;;;;;;;12.87;8.57;;;;;;;9.57;52.62;99802.91;10407978;28;20286;-65
2022/11/25 10:08:17;;;;;;;14.20;9.03;;;;;;;9.92;52.27;99780.13;10372300;28;20232;-66
2022/11/25 10:13:31;;;;;;;10.93;8.37;;;;;;;9.65;51.88;99807.34;10402923;28;20240;-66
2022/11/25 10:18:41;;;;;;;12.70;8.20;;;;;;;10.74;50.52;99785.66;10400860;28;20254;-65
2022/11/25 10:23:43;;;;;;;12.93;7.80;;;;;;;9.73;52.36;99850.03;10404382;28;20296;-66
2022/11/25 10:28:55;;;;;;;11.23;7.87;;;;;;;10.08;51.87;99834.47;10402953;28;20236;-64
2022/11/25 10:33:58;;;;;;;16.73;8.97;;;;;;;9.16;54.21;99892.09;10398596;28;20232;-64
2022/11/25 10:39:25;;;;;;;12.63;8.57;;;;;;;9.90;52.67;99821.41;10402106;28;20243;-64
2022/11/25 10:44:27;;;;;;;14.60;9.53;;;;;;;10.27;51.23;99801.03;10404090;28;20582;-64
2022/11/25 10:49:44;;;;;;;13.53;10.57;;;;;;;10.30;51.84;99833.59;10404301;28;20232;-64
2022/11/25 10:55:15;;;;;;;16.83;13.13;;;;;;;11.10;50.56;99831.22;10401572;28;20717;-65
2022/11/25 11:06:35;;;;;;;29.23;23.63;;;;;;;7.24;60.85;99825.75;10477316;27;20803;-63
2022/11/25 11:11:47;;;;;;;39.60;28.17;;;;;;;6.47;61.38;99817.69;10368131;28;20239;-63
2022/11/25 11:16:54;;;;;;;29.90;24.90;;;;;;;7.25;60.83;99802.63;10353771;28;20288;-65
2022/11/25 11:22:13;;;;;;;32.77;24.27;;;;;;;7.25;60.35;99800.78;10347805;28;20233;-65
2022/11/25 11:27:24;;;;;;;27.37;22.07;;;;;;;7.71;59.71;99785.22;10362182;28;20236;-63
2022/11/25 11:32:28;;;;;;;26.27;20.00;;;;;;;5.79;64.41;99791.75;10376446;28;20947;-66
2022/11/25 11:37:32;;;;;;;19.10;14.87;;;;;;;6.91;62.13;99791.03;10376854;28;20233;-63
2022/11/25 11:42:43;;;;;;;20.17;14.63;;;;;;;7.91;60.06;99777.78;10379834;28;20355;-66
2022/11/25 11:48:22;;;;;;;19.20;12.93;;;;;;;7.33;61.37;99830.09;10387301;28;20240;-66
2022/11/25 11:53:29;;;;;;;17.77;12.00;;;;;;;8.01;59.37;99788.25;10388685;28;20234;-66
2022/11/25 11:58:49;;;;;;;15.93;10.60;;;;;;;7.76;60.81;99786.53;10404332;28;20242;-63
2022/11/25 12:04:13;;;;;;;16.03;8.53;;;;;;;7.13;62.27;99839.34;10405690;28;20284;-64
2022/11/25 12:09:22;;;;;;;13.60;7.80;;;;;;;8.01;60.69;99804.22;10397667;28;20236;-64
2022/11/25 12:14:41;;;;;;;11.80;8.57;;;;;;;9.36;58.57;99793.66;10383303;28;20247;-63
2022/11/25 12:19:53;;;;;;;13.07;8.07;;;;;;;8.23;60.35;99831.22;10382535;28;20241;-63
2022/11/25 12:25:14;;;;;;;13.73;8.53;;;;;;;8.25;60.94;99843.38;10362092;28;20609;-65
2022/11/25 12:30:21;;;;;;;13.13;7.90;;;;;;;7.84;62.67;99861.16;10363660;28;20229;-66
2022/11/25 12:35:56;;;;;;;12.37;8.73;;;;;;;7.64;61.80;99866.75;10365776;28;20225;-66
2022/11/25 12:41:22;;;;;;;11.93;7.63;;;;;;;9.51;59.85;99836.47;10382327;28;20758;-66
2022/11/25 12:46:48;;;;;;;10.90;7.50;;;;;;;8.87;60.29;99854.47;10373538;28;20295;-66
2022/11/25 12:52:02;;;;;;;11.13;7.23;;;;;;;7.91;62.89;99894.16;10371022;28;20232;-66
2022/11/25 12:57:10;;;;;;;10.73;7.03;;;;;;;9.08;60.51;99868.09;10362536;28;20237;-66
2022/11/25 13:02:26;;;;;;;12.37;7.43;;;;;;;7.98;63.11;99908.50;10372347;28;20237;-66
2022/11/25 13:08:02;;;;;;;12.57;7.53;;;;;;;7.99;63.09;99912.00;10371750;28;20255;-66
2022/11/25 13:13:27;;;;;;;11.13;7.03;;;;;;;9.43;60.02;99899.81;10372028;28;20228;-66
2022/11/25 13:18:32;;;;;;;14.07;7.13;;;;;;;9.66;59.07;99911.38;10362995;28;20245;-66
2022/11/25 13:23:51;;;;;;;16.50;6.17;;;;;;;8.52;61.11;99960.53;10368659;28;20264;-65
2022/11/25 13:28:54;;;;;;;11.33;6.40;;;;;;;8.48;61.14;99968.03;10385287;28;20239;-65
2022/11/25 13:33:58;;;;;;;10.07;5.73;;;;;;;8.55;61.47;100005.53;10392749;28;20231;-66
2022/11/25 13:39:04;;;;;;;12.67;6.83;;;;;;;8.54;61.04;99975.38;10372863;28;20240;-66
2022/11/25 13:44:43;;;;;;;11.87;6.60;;;;;;;8.89;61.47;99952.03;10390264;28;20742;-66
2022/11/25 13:49:59;;;;;;;10.83;5.87;;;;;;;7.94;62.98;100018.25;10369102;28;20800;-67
2022/11/25 13:55:08;;;;;;;8.13;5.53;;;;;;;7.96;62.83;100013.59;10366457;28;20232;-66
2022/11/25 14:00:13;;;;;;;10.47;6.00;;;;;;;9.42;59.09;99973.78;10386260;28;20248;-65
2022/11/25 14:05:33;;;;;;;10.37;5.03;;;;;;;8.89;60.59;100002.72;10374228;28;20235;-65
2022/11/25 14:10:49;;;;;;;9.37;5.00;;;;;;;10.24;58.00;100020.69;10376209;28;20256;-66
2022/11/25 14:15:59;;;;;;;13.00;6.07;;;;;;;9.69;57.98;100054.50;10364742;28;20237;-67
2022/11/25 14:21:36;;;;;;;7.97;5.80;;;;;;;10.22;57.45;100050.28;10363732;28;20717;-67
2022/11/25 14:26:39;;;;;;;10.90;5.83;;;;;;;9.87;56.98;100049.78;10365244;28;20295;-64
2022/11/25 14:31:56;;;;;;;14.37;8.10;;;;;;;10.05;57.56;100062.06;10365436;28;20735;-67
2022/11/25 14:37:06;;;;;;;10.40;6.30;;;;;;;10.12;56.91;100069.25;10360110;28;20249;-65
2022/11/25 14:42:12;;;;;;;10.77;4.97;;;;;;;8.75;59.43;100118.94;10363348;28;20281;-67
2022/11/25 14:47:21;;;;;;;8.53;4.87;;;;;;;9.88;57.32;100094.22;10362653;28;20244;-67
2022/11/25 14:52:25;;;;;;;8.60;5.13;;;;;;;10.36;55.67;100102.22;10363148;28;20718;-67
2022/11/25 14:57:40;;;;;;;7.57;4.17;;;;;;;10.15;55.96;100117.00;10383007;28;20243;-67
2022/11/25 15:02:57;;;;;;;8.90;4.73;;;;;;;10.03;57.01;100123.75;10362152;28;20235;-66
2022/11/25 15:08:13;;;;;;;8.33;5.40;;;;;;;12.33;52.26;100153.25;10357716;28;20267;-65
2022/11/25 15:13:41;;;;;;;16.70;10.87;;;;;;;12.65;50.81;100148.53;10362864;28;20229;-66
2022/11/25 15:18:48;;;;;;;8.50;5.47;;;;;;;9.71;56.52;100210.97;10361558;28;20241;-67
2022/11/25 15:23:50;;;;;;;8.57;4.23;;;;;;;8.90;58.63;100215.25;10368466;28;20722;-67
2022/11/25 15:28:57;;;;;;;10.10;5.43;;;;;;;9.88;57.41;100190.44;10364160;28;20232;-64
2022/11/25 15:34:02;;;;;;;10.47;6.47;;;;;;;11.32;53.78;100160.81;10359599;28;20240;-67
2022/11/25 15:39:19;;;;;;;13.70;7.30;;;;;;;10.32;54.55;100215.91;10360564;28;20249;-68
2022/11/25 15:44:32;;;;;;;7.03;5.20;;;;;;;11.34;52.93;100180.22;10375017;28;20236;-64
2022/11/25 15:49:34;;;;;;;9.30;5.70;;;;;;;11.25;52.99;100198.22;10362780;28;20241;-67
2022/11/25 15:54:50;;;;;;;11.03;7.23;;;;;;;10.13;55.47;100258.06;10372088;28;20701;-67
2022/11/25 15:59:54;;;;;;;11.10;7.23;;;;;;;10.79;53.94;100223.09;10386936;28;20229;-69
2022/11/25 16:05:11;;;;;;;13.60;8.13;;;;;;;11.28;52.87;100216.59;10394878;28;20298;-69
2022/11/25 16:10:40;;;;;;;13.00;7.83;;;;;;;10.08;55.73;100264.94;10376896;28;20233;-68
2022/11/25 16:16:02;;;;;;;12.90;8.33;;;;;;;11.17;54.03;100217.88;10371746;28;20228;-65
2022/11/25 16:21:08;;;;;;;18.40;11.33;;;;;;;11.82;51.09;100231.78;10342494;28;20217;-65
2022/11/25 16:26:13;;;;;;;14.20;9.20;;;;;;;10.56;53.20;100262.31;10365425;28;20757;-66
2022/11/25 16:31:16;;;;;;;17.13;8.83;;;;;;;11.10;52.64;100270.47;10380961;23;20260;-36
2022/11/25 16:36:18;;;;;;;18.73;9.60;;;;;;;10.21;54.53;100315.22;10361958;28;20248;-38
2022/11/25 16:41:24;;;;;;;16.83;10.83;;;;;;;11.71;51.80;100267.91;10351586;28;20660;-35
2022/11/25 16:46:26;;;;;;;17.63;11.37;;;;;;;10.68;52.83;100287.69;10331831;28;20245;-36
2022/11/25 16:51:28;;;;;;;13.60;9.20;;;;;;;11.87;51.69;100284.88;10364343;28;20707;-35
2022/11/25 16:56:35;;;;;;;17.37;9.90;;;;;;;11.18;52.26;100291.84;10368988;28;20232;-32
2022/11/25 17:01:36;;;;;;;16.00;9.43;;;;;;;10.56;53.09;100338.06;10376544;28;20224;-35
2022/11/25 17:06:40;;;;;;;16.13;10.07;;;;;;;10.63;52.59;100306.97;10372807;28;20238;-35
2022/11/25 17:11:53;;;;;;;20.37;9.93;;;;;;;10.76;52.55;100340.41;10365949;28;20241;-35
2022/11/25 17:16:55;;;;;;;17.80;9.57;;;;;;;10.78;52.10;100330.34;10367071;28;20241;-35
2022/11/25 17:21:56;;;;;;;15.93;8.77;;;;;;;10.65;52.98;100354.97;10370474;28;20999;-34
2022/11/25 17:27:03;;;;;;;23.97;12.10;;;;;;;11.48;51.77;100340.25;10379240;28;20772;-35
2022/11/25 17:32:05;;;;;;;16.73;10.50;;;;;;;11.07;52.32;100346.66;10364770;28;20234;-36
2022/11/25 17:37:19;;;;;;;19.00;10.83;;;;;;;11.15;51.56;100321.66;10337763;28;20259;-36
2022/11/25 17:42:30;;;;;;;18.97;12.13;;;;;;;10.21;53.30;100408.84;10373769;28;20231;-35
2022/11/25 17:47:32;;;;;;;16.57;10.57;;;;;;;11.28;51.81;100358.59;10370981;28;20741;-34
2022/11/25 17:52:33;;;;;;;13.33;7.63;;;;;;;10.02;52.82;100399.31;10372800;28;20241;-38
2022/11/25 17:57:35;;;;;;;13.13;8.33;;;;;;;10.38;52.60;100378.41;10368389;28;20236;-35
2022/11/25 18:02:37;;;;;;;12.23;6.40;;;;;;;10.38;53.13;100393.63;10366002;28;20777;-37
2022/11/25 18:07:42;;;;;;;13.97;6.57;;;;;;;10.05;52.78;100410.50;10355442;28;20241;-36
2022/11/25 18:12:46;;;;;;;14.13;6.80;;;;;;;10.27;52.75;100413.53;10369795;28;20232;-35
2022/11/25 18:17:50;;;;;;;11.50;6.27;;;;;;;10.36;52.19;100396.47;10367808;28;20238;-33
2022/11/25 18:22:52;;;;;;;14.63;6.43;;;;;;;9.80;53.17;100433.66;10341265;28;20647;-36
2022/11/25 18:27:56;;;;;;;14.63;6.87;;;;;;;9.85;53.60;100415.31;10327095;28;20227;-35
2022/11/25 18:33:00;;;;;;;15.13;8.87;;;;;;;10.21;52.17;100400.81;10344329;28;20229;-33
2022/11/25 18:38:03;;;;;;;12.70;6.83;;;;;;;10.55;51.32;100387.25;10356294;28;20243;-39
2022/11/25 18:43:10;;;;;;;12.93;5.77;;;;;;;10.70;51.57;100425.72;10330566;28;20655;-36
2022/11/25 18:48:19;;;;;;;13.90;6.20;;;;;;;9.70;52.89;100489.06;10328299;28;20216;-36
2022/11/25 18:53:22;;;;;;;14.27;6.30;;;;;;;8.97;53.73;100477.84;10320873;28;20842;-34
2022/11/25 18:58:28;;;;;;;25.47;12.77;;;;;;;9.67;52.29;100466.19;10357255;28;20234;-34
2022/11/25 19:03:31;;;;;;;15.03;8.37;;;;;;;10.07;51.65;100483.38;10360567;28;20229;-38
2022/11/25 19:08:32;;;;;;;15.57;7.10;;;;;;;10.00;51.75;100501.06;10371383;28;20229;-35
2022/11/25 19:13:35;;;;;;;14.97;7.10;;;;;;;9.67;53.05;100550.84;10338082;28;20223;-34
2022/11/25 19:18:38;;;;;;;14.63;7.10;;;;;;;9.71;53.08;100547.72;10366914;28;20238;-33
2022/11/25 19:23:40;;;;;;;22.70;10.83;;;;;;;9.91;52.49;100516.25;10369237;28;20623;-33
2022/11/25 19:28:46;;;;;;;16.03;9.00;;;;;;;10.05;51.58;100509.44;10376575;28;20491;-33
2022/11/25 19:33:50;;;;;;;18.10;8.47;;;;;;;9.78;51.84;100550.59;10378328;28;20244;-44
2022/11/25 19:38:52;;;;;;;19.30;8.80;;;;;;;9.42;52.47;100585.47;10376677;28;20237;-44
2022/11/25 19:43:54;;;;;;;26.27;12.93;;;;;;;9.61;51.34;100562.22;10376284;28;20228;-43
2022/11/25 19:49:00;;;;;;;28.33;16.47;;;;;;;8.63;53.37;100582.63;10376741;28;20726;-44
2022/11/25 19:54:01;;;;;;;13.90;9.10;;;;;;;8.06;54.90;100553.53;10386418;28;20229;-44
2022/11/25 19:59:03;;;;;;;20.93;8.80;;;;;;;8.36;54.46;100588.88;10376489;28;20237;-44
2022/11/25 20:04:06;;;;;;;23.00;8.00;;;;;;;7.96;55.41;100567.91;10375927;28;20715;-43
2022/11/25 20:09:12;;;;;;;19.73;7.13;;;;;;;8.61;53.63;100605.13;10390768;28;20234;-43
2022/11/25 20:14:14;;;;;;;19.67;7.50;;;;;;;9.75;52.08;100562.44;10376306;28;20244;-44
2022/11/25 20:19:17;;;;;;;14.23;7.00;;;;;;;9.05;53.61;100620.44;10376039;28;20280;-44
2022/11/25 20:24:19;;;;;;;15.13;6.47;;;;;;;8.74;53.26;100613.63;10354464;28;20237;-41
2022/11/25 20:29:21;;;;;;;20.00;7.43;;;;;;;9.67;52.02;100575.78;10351458;28;20276;-42
2022/11/25 20:34:32;;;;;;;13.10;6.00;;;;;;;9.52;52.17;100591.53;10351626;28;20256;-44
2022/11/25 20:39:43;;;;;;;16.90;6.47;;;;;;;9.36;53.16;100634.16;10368246;28;21004;-44
2022/11/25 20:44:46;;;;;;;14.47;6.63;;;;;;;8.88;53.83;100657.63;10374039;28;20229;-43
2022/11/25 20:49:47;;;;;;;14.40;6.97;;;;;;;9.05;53.21;100653.28;10356106;28;20232;-43
2022/11/25 20:54:49;;;;;;;12.40;6.40;;;;;;;8.60;54.34;100659.47;10344634;28;20233;-44
2022/11/25 20:59:51;;;;;;;14.07;6.97;;;;;;;8.80;54.23;100652.19;10362373;28;20238;-44
2022/11/25 21:04:52;;;;;;;16.87;6.47;;;;;;;8.10;55.18;100648.22;10350107;28;20230;-44
2022/11/25 21:09:54;;;;;;;11.57;5.87;;;;;;;8.37;54.79;100672.38;10375290;28;20237;-44
2022/11/25 21:14:56;;;;;;;13.97;6.30;;;;;;;7.32;56.73;100624.44;10360290;28;20242;-44
2022/11/25 21:19:58;;;;;;;16.53;8.03;;;;;;;8.60;54.93;100649.63;10364622;28;20244;-44
2022/11/25 21:25:00;;;;;;;14.97;5.60;;;;;;;9.24;53.08;100638.09;10368200;28;20235;-44
2022/11/25 21:30:02;;;;;;;11.03;6.40;;;;;;;9.24;52.34;100646.09;10373156;28;20234;-43
2022/11/25 21:35:04;;;;;;;10.63;5.57;;;;;;;7.91;56.53;100651.81;10373175;28;20243;-44
2022/11/25 21:40:22;;;;;;;13.93;5.60;;;;;;;8.28;55.61;100682.09;10370149;28;20736;-43
2022/11/25 21:45:24;;;;;;;11.87;6.13;;;;;;;6.94;57.75;100638.63;10372581;28;20237;-44
2022/11/25 21:50:28;;;;;;;11.63;5.27;;;;;;;7.84;56.77;100677.34;10374722;28;20987;-44
2022/11/25 21:55:32;;;;;;;13.17;6.10;;;;;;;8.47;54.75;100666.03;10382110;28;20244;-44
2022/11/25 22:00:34;;;;;;;14.90;6.90;;;;;;;7.23;57.00;100675.06;10371241;28;20748;-44
2022/11/25 22:05:35;;;;;;;13.47;5.77;;;;;;;6.78;59.17;100644.47;10374240;28;20232;-43
2022/11/25 22:10:40;;;;;;;17.93;6.97;;;;;;;6.90;58.93;100664.69;10380714;28;20738;-44
2022/11/25 22:15:43;;;;;;;15.83;6.20;;;;;;;6.90;59.27;100648.72;10371593;28;20254;-43
2022/11/25 22:20:44;;;;;;;14.03;5.27;;;;;;;8.50;56.00;100608.84;10362897;28;20240;-44
2022/11/25 22:25:54;;;;;;;26.60;7.80;;;;;;;8.68;53.97;100667.56;10364549;28;20656;-43
2022/11/25 22:31:06;;;;;;;17.87;6.03;;;;;;;6.56;58.25;100637.56;10365225;28;20239;-44
2022/11/25 22:36:31;;;;;;;13.70;5.73;;;;;;;7.04;57.53;100687.38;10340004;28;20932;-44
2022/11/25 22:41:33;;;;;;;10.87;5.80;;;;;;;7.50;57.23;100701.78;10366484;28;20722;-44
2022/11/25 22:46:36;;;;;;;15.60;6.07;;;;;;;7.47;57.33;100699.41;10366717;28;20237;-43
2022/11/25 22:51:38;;;;;;;12.70;6.07;;;;;;;8.60;54.68;100662.16;10337318;28;20240;-44
2022/11/25 22:56:40;;;;;;;13.87;7.60;;;;;;;8.34;54.12;100689.53;10339262;28;20339;-44
2022/11/25 23:01:43;;;;;;;17.13;8.87;;;;;;;8.20;53.91;100722.00;10364949;28;20229;-42
2022/11/25 23:06:46;;;;;;;14.27;7.87;;;;;;;8.59;53.34;100740.50;10343056;28;20662;-44
2022/11/25 23:11:47;;;;;;;12.33;6.53;;;;;;;9.03;52.82;100744.22;10339632;28;20221;-43
2022/11/25 23:16:49;;;;;;;16.43;6.53;;;;;;;7.19;56.57;100727.72;10334417;28;20239;-43
2022/11/25 23:21:51;;;;;;;12.00;6.30;;;;;;;6.83;59.03;100729.22;10329212;28;20225;-44
2022/11/25 23:26:53;;;;;;;13.17;6.87;;;;;;;8.46;56.60;100707.00;10352890;28;20441;-44
2022/11/25 23:31:57;;;;;;;12.77;6.10;;;;;;;8.09;55.02;100763.00;10326854;28;20221;-42
2022/11/25 23:37:00;;;;;;;13.27;7.13;;;;;;;7.80;55.42;100761.22;10341536;28;20217;-44
2022/11/25 23:42:02;;;;;;;14.57;7.90;;;;;;;8.83;54.63;100716.78;10369625;28;20587;-43
2022/11/25 23:47:09;;;;;;;17.10;8.73;;;;;;;9.29;53.23;100706.06;10368658;28;20698;-44
2022/11/25 23:52:20;;;;;;;20.40;10.43;;;;;;;9.01;53.09;100777.38;10370779;28;20233;-43
2022/11/25 23:57:32;;;;;;;21.23;10.63;;;;;;;9.91;51.42;100719.44;10368158;28;20726;-44
